Time;durP1;ratioP1;P1;durP2;ratioP2;P2;SDS_P1;SDS_P2;PMS_P1;PMS_P2;Temp;Humidity;BMP_temperature;BMP_pressure;BME280_temperature;BME280_humidity;BME280_pressure;Samples;Min_cycle;Max_cycle;Signal;HPM_P1;HPM_P2
2021/04/08 00:01:22;;;;;;;9.52;1.70;;;;;;;3.84;70.37;100208.22;5055975;28;20053;-85
2021/04/08 00:03:48;;;;;;;11.05;1.67;;;;;;;3.83;70.26;100201.31;5055509;28;20053;-85
2021/04/08 00:06:15;;;;;;;10.38;1.77;;;;;;;3.83;70.32;100204.78;5055927;28;20178;-85
2021/04/08 00:08:41;;;;;;;11.65;1.63;;;;;;;3.82;69.89;100207.41;5038136;28;20049;-85
2021/04/08 00:11:07;;;;;;;7.03;1.50;;;;;;;3.80;69.70;100212.66;5055911;28;20052;-86
2021/04/08 00:13:34;;;;;;;12.57;1.75;;;;;;;3.78;70.17;100204.88;5038078;28;20057;-84
2021/04/08 00:16:02;;;;;;;9.90;1.92;;;;;;;3.79;70.20;100213.56;5038160;28;20044;-86
2021/04/08 00:18:29;;;;;;;10.20;1.25;;;;;;;3.79;70.60;100216.16;5037799;28;20045;-85
2021/04/08 00:20:55;;;;;;;9.15;1.27;;;;;;;3.79;70.45;100216.16;5037881;28;20045;-86
2021/04/08 00:23:21;;;;;;;12.00;1.40;;;;;;;3.80;70.40;100211.78;5055559;28;20053;-85
2021/04/08 00:25:47;;;;;;;6.55;1.27;;;;;;;3.79;70.13;100218.75;5055391;28;20061;-86
2021/04/08 00:28:13;;;;;;;10.95;2.10;;;;;;;3.79;70.48;100221.38;5037969;28;20041;-86
2021/04/08 00:30:45;;;;;;;5.60;1.20;;;;;;;3.78;70.72;100223.09;5055150;28;20075;-86
2021/04/08 00:33:17;;;;;;;4.37;1.17;;;;;;;3.78;69.98;100219.66;5038506;28;20049;-85
2021/04/08 00:35:44;;;;;;;10.68;1.55;;;;;;;3.80;70.76;100217.88;5055167;28;20064;-85
2021/04/08 00:38:12;;;;;;;8.32;1.98;;;;;;;3.79;70.18;100226.56;5055295;28;20056;-86
2021/04/08 00:40:40;;;;;;;7.47;1.65;;;;;;;3.81;70.58;100223.94;5054974;28;20045;-86
2021/04/08 00:43:06;;;;;;;11.07;1.95;;;;;;;3.80;70.50;100223.06;5055242;28;20106;-86
2021/04/08 00:45:33;;;;;;;8.52;1.55;;;;;;;3.81;70.16;100223.94;5054713;28;20056;-86
2021/04/08 00:48:02;;;;;;;8.13;1.90;;;;;;;3.80;70.42;100217.00;5055152;28;20442;-86
2021/04/08 00:50:28;;;;;;;8.85;1.55;;;;;;;3.78;70.35;100227.47;5036994;28;20052;-85
2021/04/08 00:52:58;;;;;;;10.10;1.85;;;;;;;3.76;70.38;100232.69;5054935;28;20060;-86
2021/04/08 00:55:34;;;;;;;6.88;1.42;;;;;;;3.73;69.68;100227.56;5054715;28;20056;-85
2021/04/08 00:58:03;;;;;;;5.05;1.40;;;;;;;3.75;70.32;100231.00;5054834;28;20432;-85
2021/04/08 01:00:31;;;;;;;8.13;1.88;;;;;;;3.73;69.85;100235.38;5036992;28;20053;-85
2021/04/08 01:02:57;;;;;;;7.53;1.38;;;;;;;3.72;69.73;100235.41;5054934;28;20056;-86
2021/04/08 01:05:23;;;;;;;7.78;1.77;;;;;;;3.68;70.37;100229.41;5054416;28;20119;-84
2021/04/08 01:07:50;;;;;;;9.15;1.85;;;;;;;3.67;69.83;100232.03;5054981;28;20053;-85
2021/04/08 01:10:18;;;;;;;11.35;1.80;;;;;;;3.64;70.25;100241.63;5054579;28;20099;-85
2021/04/08 01:12:44;;;;;;;9.05;1.27;;;;;;;3.62;70.25;100239.94;5054530;28;20053;-85
2021/04/08 01:15:11;;;;;;;7.80;1.15;;;;;;;3.59;70.05;100259.06;5054472;28;20052;-86
2021/04/08 01:18:01;;;;;;;9.23;1.27;;;;;;;3.51;69.46;100251.41;5054551;28;20060;-85
2021/04/08 01:20:46;;;;;;;8.23;2.08;;;;;;;3.50;69.58;100251.44;5054362;28;20460;-86
2021/04/08 01:23:28;;;;;;;10.25;1.85;;;;;;;3.50;70.49;100251.44;5054215;28;20175;-84
2021/04/08 01:26:27;;;;;;;12.63;2.00;;;;;;;3.43;69.57;100257.69;5036586;28;20103;-86
2021/04/08 01:29:14;;;;;;;10.30;1.67;;;;;;;3.38;69.81;100256.03;5054215;28;20095;-86
2021/04/08 01:31:42;;;;;;;7.88;1.60;;;;;;;3.40;70.76;100258.56;5054631;28;20056;-85
2021/04/08 01:34:13;;;;;;;15.35;2.85;;;;;;;3.38;70.56;100270.75;5054049;28;20048;-85
2021/04/08 01:36:42;;;;;;;7.00;1.50;;;;;;;3.38;70.94;100268.16;5036621;28;20060;-85
2021/04/08 01:39:15;;;;;;;12.77;2.00;;;;;;;3.36;70.37;100265.59;5054090;28;20049;-84
2021/04/08 01:41:43;;;;;;;4.50;2.03;;;;;;;3.39;70.87;100270.75;5054307;28;20049;-85
2021/04/08 01:44:22;;;;;;;4.65;1.38;;;;;;;3.38;70.83;100268.16;5053720;28;20052;-86
2021/04/08 01:46:56;;;;;;;8.13;1.50;;;;;;;3.42;70.56;100274.16;5053975;28;20061;-85
2021/04/08 01:49:26;;;;;;;13.85;1.63;;;;;;;3.41;70.20;100272.44;5053838;28;20049;-85
2021/04/08 01:51:57;;;;;;;4.28;1.40;;;;;;;3.39;70.71;100270.75;5054422;28;20049;-85
2021/04/08 01:54:29;;;;;;;4.93;1.25;;;;;;;3.36;70.41;100276.00;5053391;28;20467;-85
2021/04/08 01:56:59;;;;;;;6.82;1.55;;;;;;;3.36;70.39;100270.78;5054196;28;20049;-85
2021/04/08 01:59:25;;;;;;;4.82;1.38;;;;;;;3.37;70.49;100284.66;5035920;28;20053;-85
2021/04/08 02:01:54;;;;;;;6.97;1.58;;;;;;;3.34;71.21;100283.00;5053792;28;20053;-85
2021/04/08 02:04:20;;;;;;;10.63;1.67;;;;;;;3.34;70.83;100283.00;5053280;28;20098;-86
2021/04/08 02:06:48;;;;;;;7.90;1.52;;;;;;;3.33;70.78;100291.66;5053663;28;20455;-85
2021/04/08 02:09:15;;;;;;;5.47;1.20;;;;;;;3.32;71.08;100289.09;5035789;28;20044;-85
2021/04/08 02:11:41;;;;;;;9.93;1.67;;;;;;;3.31;70.74;100290.84;5053152;28;20056;-86
2021/04/08 02:14:12;;;;;;;7.13;1.67;;;;;;;3.29;70.74;100290.00;5035505;28;20479;-84
2021/04/08 02:16:38;;;;;;;6.55;1.40;;;;;;;3.30;70.50;100288.25;5053496;28;20481;-86
2021/04/08 02:19:07;;;;;;;6.78;2.22;;;;;;;3.26;71.08;100290.06;5053425;28;20402;-85
2021/04/08 02:21:34;;;;;;;9.40;1.70;;;;;;;3.24;71.15;100277.09;5035844;28;20056;-85
2021/04/08 02:24:02;;;;;;;7.38;1.40;;;;;;;3.24;70.94;100284.03;5053031;28;20485;-85
2021/04/08 02:26:29;;;;;;;15.98;2.05;;;;;;;3.23;71.57;100280.59;5053244;28;20489;-85
2021/04/08 02:28:58;;;;;;;5.03;1.42;;;;;;;3.24;71.20;100276.22;5052427;28;20051;-85
2021/04/08 02:31:25;;;;;;;5.85;1.45;;;;;;;3.25;71.27;100284.00;5034366;28;20497;-86
2021/04/08 02:33:51;;;;;;;12.63;2.00;;;;;;;3.25;71.36;100271.00;5035250;28;20493;-84
2021/04/08 02:36:17;;;;;;;8.52;2.00;;;;;;;3.25;71.75;100281.41;5053656;28;20064;-86
2021/04/08 02:38:44;;;;;;;16.65;1.90;;;;;;;3.28;71.19;100274.44;5053153;28;20521;-85
2021/04/08 02:41:10;;;;;;;8.32;2.10;;;;;;;3.28;71.77;100288.28;5053221;28;20048;-85
2021/04/08 02:43:37;;;;;;;5.50;1.33;;;;;;;3.30;71.46;100290.88;5053279;28;20132;-85
2021/04/08 02:46:04;;;;;;;8.82;2.00;;;;;;;3.30;71.83;100296.06;5053027;28;20049;-85
2021/04/08 02:48:32;;;;;;;5.47;1.50;;;;;;;3.31;71.43;100288.25;5035248;28;20496;-85
2021/04/08 02:51:20;;;;;;;5.53;1.70;;;;;;;3.30;70.83;100296.06;5053246;28;20127;-85
2021/04/08 02:54:21;;;;;;;6.75;1.38;;;;;;;3.32;70.50;100302.13;5052972;28;20095;-84
2021/04/08 02:56:57;;;;;;;11.13;2.00;;;;;;;3.32;70.34;100296.91;4956389;28;20088;-85
2021/04/08 02:59:27;;;;;;;7.25;1.35;;;;;;;3.32;71.33;100302.13;5041726;28;20068;-85
2021/04/08 03:02:14;;;;;;;7.05;1.80;;;;;;;3.29;71.00;100302.16;5053210;28;20045;-86
2021/04/08 03:04:45;;;;;;;8.40;1.50;;;;;;;3.31;71.44;100305.59;5052689;28;20417;-85
2021/04/08 03:07:12;;;;;;;6.40;1.50;;;;;;;3.31;71.73;100311.66;5053169;28;20140;-85
2021/04/08 03:09:42;;;;;;;9.90;2.03;;;;;;;3.30;71.18;100315.16;5035016;28;20494;-85
2021/04/08 03:12:12;;;;;;;7.68;1.55;;;;;;;3.32;71.66;100315.13;5053103;28;20052;-85
2021/04/08 03:14:46;;;;;;;8.73;1.70;;;;;;;3.32;71.68;100309.94;5052809;28;20053;-85
2021/04/08 03:17:14;;;;;;;;;;;;;;;3.36;70.32;100316.75;5053336;28;20053;-84
2021/04/08 03:19:42;;;;;;;10.93;1.90;;;;;;;3.40;71.39;100310.63;5052658;28;19974;-85
2021/04/08 03:22:09;;;;;;;3.25;1.40;;;;;;;3.39;71.50;100312.38;5053807;28;20056;-85
2021/04/08 03:24:37;;;;;;;7.75;1.80;;;;;;;3.38;71.35;100315.00;5038786;28;20049;-85
2021/04/08 03:27:06;;;;;;;6.25;1.52;;;;;;;3.37;71.25;100318.50;5056354;28;20571;-85
2021/04/08 03:29:34;;;;;;;7.10;1.63;;;;;;;3.38;71.51;100322.81;5038786;28;20049;-85
2021/04/08 03:32:02;;;;;;;6.28;1.75;;;;;;;3.37;71.57;100319.34;5056616;28;20150;-84
2021/04/08 03:34:28;;;;;;;7.03;1.50;;;;;;;3.38;71.72;100321.09;5056106;28;20045;-85
2021/04/08 03:36:55;;;;;;;7.13;2.20;;;;;;;3.38;71.54;100322.81;5056825;28;20049;-86
2021/04/08 03:39:21;;;;;;;10.95;1.92;;;;;;;3.38;71.58;100325.41;5038507;28;20103;-85
2021/04/08 03:41:49;;;;;;;7.75;1.50;;;;;;;3.38;71.30;100331.50;5056649;28;20052;-86
2021/04/08 03:44:16;;;;;;;6.53;2.08;;;;;;;3.39;71.66;100332.31;5056033;28;20412;-85
2021/04/08 03:46:45;;;;;;;11.23;1.83;;;;;;;3.39;71.49;100332.31;5056253;28;20051;-86
2021/04/08 03:49:15;;;;;;;6.25;1.75;;;;;;;3.38;71.45;100331.50;5056443;28;20040;-85
2021/04/08 03:51:42;;;;;;;8.07;1.77;;;;;;;3.39;71.57;100327.13;5056351;28;20421;-85
2021/04/08 03:54:12;;;;;;;13.15;2.05;;;;;;;3.38;71.70;100323.69;5055758;28;20045;-85
2021/04/08 03:56:47;;;;;;;5.57;1.35;;;;;;;3.36;71.29;100334.97;5038236;28;20390;-85
2021/04/08 03:59:15;;;;;;;8.25;1.77;;;;;;;3.39;72.03;100334.94;5055895;28;20049;-85
2021/04/08 04:01:43;;;;;;;12.18;1.60;;;;;;;3.38;71.43;100335.81;5130527;22;20048;-87
2021/04/08 04:04:10;;;;;;;6.63;2.20;;;;;;;3.38;71.72;100333.22;5078312;28;20083;-86
2021/04/08 04:06:41;;;;;;;6.70;2.00;;;;;;;3.42;72.27;100341.81;5078745;28;20044;-87
2021/04/08 04:09:10;;;;;;;8.38;2.08;;;;;;;3.43;71.98;100335.75;5096457;28;20052;-86
2021/04/08 04:11:39;;;;;;;8.93;2.33;;;;;;;3.43;71.34;100336.59;5096474;28;20048;-86
2021/04/08 04:14:08;;;;;;;11.20;2.40;;;;;;;3.44;71.56;100338.31;5078509;28;20079;-86
2021/04/08 04:16:40;;;;;;;11.05;1.98;;;;;;;3.44;71.06;100346.13;5078516;28;20048;-86
2021/04/08 04:19:06;;;;;;;7.90;2.20;;;;;;;3.43;71.17;100335.75;5078034;28;20496;-86
2021/04/08 04:21:34;;;;;;;13.27;2.05;;;;;;;3.43;71.42;100348.78;5078191;28;20458;-86
2021/04/08 04:24:00;;;;;;;8.32;2.22;;;;;;;3.39;71.48;100354.03;5078201;28;20101;-87
2021/04/08 04:26:27;;;;;;;4.68;1.92;;;;;;;3.37;71.79;100354.94;5096285;28;20052;-87
2021/04/08 04:28:53;;;;;;;6.75;2.30;;;;;;;3.36;71.80;100348.00;5096797;28;20055;-86
2021/04/08 04:31:20;;;;;;;8.23;1.83;;;;;;;3.35;71.70;100348.88;5077771;28;20063;-86
2021/04/08 04:33:47;;;;;;;8.18;2.03;;;;;;;3.34;71.33;100350.66;5077687;28;20106;-86
2021/04/08 04:36:13;;;;;;;6.97;2.10;;;;;;;3.35;71.84;100351.47;5095860;28;20055;-86
2021/04/08 04:38:39;;;;;;;7.45;1.90;;;;;;;3.35;71.57;100356.69;5078099;28;20101;-86
2021/04/08 04:41:05;;;;;;;14.40;2.53;;;;;;;3.34;71.74;100363.66;5077716;28;20056;-86
2021/04/08 04:43:31;;;;;;;10.50;2.47;;;;;;;3.36;71.64;100359.28;5078397;28;20385;-86
2021/04/08 04:45:58;;;;;;;8.50;1.98;;;;;;;3.33;71.47;100354.09;5077975;28;20071;-86
2021/04/08 04:48:24;;;;;;;8.63;2.10;;;;;;;3.33;71.53;100353.28;5095501;28;20044;-87
2021/04/08 04:50:51;;;;;;;14.15;2.13;;;;;;;3.32;71.68;100367.16;5095584;28;20055;-86
2021/04/08 04:53:18;;;;;;;12.75;2.65;;;;;;;3.32;71.65;100356.75;5077589;28;20052;-86
2021/04/08 04:55:45;;;;;;;6.90;2.10;;;;;;;3.33;71.72;100356.72;5077856;28;20048;-87
2021/04/08 04:58:11;;;;;;;9.90;2.15;;;;;;;3.33;71.49;100363.69;5078071;28;20056;-86
2021/04/08 05:00:38;;;;;;;10.55;1.83;;;;;;;3.35;71.25;100367.09;5077348;28;20515;-86
2021/04/08 05:03:05;;;;;;;10.00;2.63;;;;;;;3.33;71.50;100361.06;5077607;28;20119;-87
2021/04/08 05:05:32;;;;;;;14.13;3.45;;;;;;;3.34;71.42;100374.06;5095237;28;20485;-87
2021/04/08 05:07:58;;;;;;;11.10;2.60;;;;;;;3.34;71.77;100371.47;5077490;28;20048;-87
2021/04/08 05:10:25;;;;;;;13.15;3.08;;;;;;;3.34;71.83;100371.47;5077438;28;20059;-86
2021/04/08 05:12:51;;;;;;;6.40;2.30;;;;;;;3.34;71.55;100368.88;5077278;28;20508;-86
2021/04/08 05:15:17;;;;;;;11.93;2.80;;;;;;;3.34;72.07;100370.59;5077134;28;20047;-87
2021/04/08 05:17:44;;;;;;;8.70;1.92;;;;;;;3.33;71.74;100379.28;5077584;28;20044;-86
2021/04/08 05:20:10;;;;;;;9.50;2.78;;;;;;;3.34;71.81;100378.41;5095071;28;20127;-86
2021/04/08 05:22:37;;;;;;;6.97;2.38;;;;;;;3.35;71.73;100382.72;5077267;28;20052;-86
2021/04/08 05:25:03;;;;;;;8.00;2.53;;;;;;;3.35;71.87;100380.97;5077231;28;20055;-86
2021/04/08 05:27:29;;;;;;;8.23;2.25;;;;;;;3.36;71.76;100380.09;5077279;28;20044;-86
2021/04/08 05:29:55;;;;;;;11.57;2.35;;;;;;;3.37;71.90;100392.22;5077006;28;20052;-86
2021/04/08 05:32:21;;;;;;;9.95;2.50;;;;;;;3.38;71.93;100390.47;5077494;28;20408;-86
2021/04/08 05:34:48;;;;;;;9.45;2.72;;;;;;;3.38;71.76;100387.88;5094714;28;20048;-86
2021/04/08 05:37:14;;;;;;;8.50;2.75;;;;;;;3.38;71.64;100387.88;5077002;28;20048;-87
2021/04/08 05:39:40;;;;;;;18.05;2.85;;;;;;;3.38;71.24;100398.28;5076511;28;20044;-87
2021/04/08 05:42:06;;;;;;;10.75;2.75;;;;;;;3.37;71.31;100393.97;5077162;28;20066;-86
2021/04/08 05:44:33;;;;;;;8.68;2.63;;;;;;;3.35;71.54;100403.53;5094065;28;20055;-86
2021/04/08 05:46:59;;;;;;;8.50;2.50;;;;;;;3.34;71.72;100405.28;5076621;28;20048;-86
2021/04/08 05:49:25;;;;;;;10.00;2.92;;;;;;;3.35;71.46;100403.53;5094548;28;20044;-85
2021/04/08 05:51:51;;;;;;;7.63;2.47;;;;;;;3.36;71.82;100413.03;5076919;28;20056;-85
2021/04/08 05:54:17;;;;;;;12.30;2.50;;;;;;;3.39;72.42;100407.81;5076413;28;20055;-85
2021/04/08 05:56:43;;;;;;;10.32;2.47;;;;;;;3.42;71.98;100412.09;5094891;28;20426;-85
2021/04/08 05:59:09;;;;;;;10.02;3.00;;;;;;;3.47;72.23;100412.88;5094600;28;20048;-86
2021/04/08 06:01:35;;;;;;;10.55;2.38;;;;;;;3.52;72.44;100416.28;5076315;28;20451;-86
2021/04/08 06:04:02;;;;;;;10.48;2.53;;;;;;;3.56;72.09;100422.28;5076344;28;20127;-86
2021/04/08 06:06:28;;;;;;;7.25;2.45;;;;;;;3.58;71.98;100416.16;5094163;28;20051;-86
2021/04/08 06:08:54;;;;;;;8.65;2.53;;;;;;;3.61;71.61;100421.31;5094194;28;20044;-86
2021/04/08 06:11:21;;;;;;;11.20;2.85;;;;;;;3.65;72.14;100422.13;5076408;28;20165;-86
2021/04/08 06:13:48;;;;;;;8.55;2.30;;;;;;;3.70;72.16;100417.69;5076330;28;20451;-85
2021/04/08 06:16:15;;;;;;;13.15;3.03;;;;;;;3.73;72.08;100422.84;5076598;28;20052;-85
2021/04/08 06:18:41;;;;;;;8.77;2.95;;;;;;;3.76;72.22;100425.41;5076344;28;20051;-85
2021/04/08 06:21:07;;;;;;;9.63;2.50;;;;;;;3.81;72.10;100433.13;5076446;28;20420;-85
2021/04/08 06:23:33;;;;;;;13.70;2.90;;;;;;;3.85;71.45;100426.13;5076415;28;20051;-86
2021/04/08 06:25:59;;;;;;;14.88;2.67;;;;;;;3.88;71.85;100436.47;5076355;28;20055;-84
2021/04/08 06:28:26;;;;;;;10.60;2.83;;;;;;;3.89;71.56;100431.22;5094772;28;20051;-85
2021/04/08 06:30:53;;;;;;;12.32;2.95;;;;;;;3.91;71.37;100436.41;5076374;28;20075;-84
2021/04/08 06:33:19;;;;;;;11.55;2.83;;;;;;;3.91;71.36;100434.69;5076047;28;20077;-85
2021/04/08 06:35:46;;;;;;;11.80;2.90;;;;;;;3.93;71.09;100436.41;5076046;28;20059;-85
2021/04/08 06:38:12;;;;;;;13.27;2.95;;;;;;;3.95;71.42;100435.47;5076025;28;20055;-85
2021/04/08 06:40:38;;;;;;;9.85;2.47;;;;;;;3.96;71.02;100441.56;5076137;28;20063;-85
2021/04/08 06:43:04;;;;;;;12.52;3.00;;;;;;;3.97;70.98;100441.53;5093964;28;20052;-85
2021/04/08 06:45:32;;;;;;;12.30;3.10;;;;;;;3.98;71.27;100440.63;5093835;28;20052;-85
2021/04/08 06:48:04;;;;;;;8.60;2.55;;;;;;;4.00;70.83;100443.22;5076466;28;20052;-85
2021/04/08 06:50:34;;;;;;;8.80;2.33;;;;;;;4.01;70.41;100450.97;5075984;28;20044;-85
2021/04/08 06:53:03;;;;;;;10.52;2.72;;;;;;;4.03;70.94;100449.22;5076368;28;20481;-85
2021/04/08 06:55:29;;;;;;;10.73;2.63;;;;;;;4.06;71.33;100442.22;5093392;28;20052;-85
2021/04/08 06:57:57;;;;;;;13.23;2.65;;;;;;;4.10;71.33;100451.69;5079420;28;20044;-84
2021/04/08 07:00:23;;;;;;;10.30;2.15;;;;;;;4.14;71.73;100446.41;5097875;28;20098;-86
2021/04/08 07:02:50;;;;;;;10.48;2.22;;;;;;;4.20;72.09;100449.78;5079960;28;20059;-85
2021/04/08 07:05:16;;;;;;;7.85;1.92;;;;;;;4.23;71.36;100455.78;5079930;28;20073;-85
2021/04/08 07:07:43;;;;;;;7.30;2.17;;;;;;;4.28;71.22;100459.19;5097453;28;20495;-85
2021/04/08 07:10:09;;;;;;;13.82;2.70;;;;;;;4.33;71.20;100446.03;5079347;28;20044;-85
2021/04/08 07:12:36;;;;;;;18.80;3.00;;;;;;;4.39;71.62;100447.69;5079367;28;20504;-85
2021/04/08 07:15:03;;;;;;;15.05;2.47;;;;;;;4.46;71.46;100453.63;5097478;28;20059;-84
2021/04/08 07:17:29;;;;;;;11.15;2.40;;;;;;;4.53;71.49;100455.22;5097308;28;20101;-86
2021/04/08 07:19:56;;;;;;;11.63;2.40;;;;;;;4.61;71.95;100465.47;5097111;28;20048;-86
2021/04/08 07:22:23;;;;;;;12.13;2.22;;;;;;;4.67;71.63;100465.34;5096940;28;20427;-86
2021/04/08 07:24:50;;;;;;;7.05;1.95;;;;;;;4.74;71.42;100466.94;5078789;28;20048;-86
2021/04/08 07:27:19;;;;;;;8.18;2.90;;;;;;;4.80;70.78;100456.41;5078910;28;20051;-85
2021/04/08 07:29:49;;;;;;;7.30;1.75;;;;;;;4.84;70.19;100467.59;5096870;28;20052;-85
2021/04/08 07:32:19;;;;;;;9.60;2.00;;;;;;;4.88;70.13;100457.94;5096798;28;20059;-86
2021/04/08 07:34:51;;;;;;;5.88;1.80;;;;;;;4.93;71.00;100463.91;5096688;28;20176;-85
2021/04/08 07:37:28;;;;;;;9.18;1.92;;;;;;;4.96;70.00;100458.66;5078934;28;20408;-86
2021/04/08 07:39:55;;;;;;;13.73;2.92;;;;;;;5.06;71.85;100472.34;5078607;28;20044;-86
2021/04/08 07:42:32;;;;;;;12.70;2.53;;;;;;;5.13;70.66;100470.47;5096533;28;20047;-85
2021/04/08 07:45:07;;;;;;;9.80;2.05;;;;;;;5.22;70.98;100465.91;5096813;28;20048;-85
2021/04/08 07:47:44;;;;;;;9.40;2.42;;;;;;;5.34;70.56;100469.97;5079332;28;20048;-85
2021/04/08 07:50:17;;;;;;;9.60;1.98;;;;;;;5.46;71.25;100474.03;5097553;28;20044;-86
2021/04/08 07:52:46;;;;;;;11.93;1.80;;;;;;;5.59;71.72;100473.72;5079451;28;20382;-86
2021/04/08 07:55:28;;;;;;;7.65;2.30;;;;;;;5.66;68.28;100483.13;5078897;28;20055;-85
2021/04/08 07:58:13;;;;;;;7.13;1.63;;;;;;;5.71;68.48;100483.88;5078778;28;20048;-85
2021/04/08 08:00:50;;;;;;;8.90;1.83;;;;;;;5.80;68.04;100472.31;5096827;28;20130;-86
2021/04/08 08:03:29;;;;;;;10.23;2.58;;;;;;;5.91;70.25;100479.03;5078568;28;20469;-86
2021/04/08 08:05:58;;;;;;;6.00;1.77;;;;;;;6.00;71.35;100479.66;5078584;28;20059;-86
2021/04/08 08:08:43;;;;;;;9.57;2.30;;;;;;;6.07;68.74;100482.13;5095591;28;20051;-86
2021/04/08 08:11:13;;;;;;;7.40;2.10;;;;;;;6.20;70.46;100485.28;5096576;28;20504;-85
2021/04/08 08:13:49;;;;;;;8.32;1.85;;;;;;;6.24;67.96;100486.91;5096245;28;20055;-85
2021/04/08 08:16:20;;;;;;;6.25;2.33;;;;;;;6.34;69.34;100490.13;5096708;28;20059;-85
2021/04/08 08:18:47;;;;;;;4.97;1.80;;;;;;;6.44;70.72;100485.50;5096456;28;20042;-85
2021/04/08 08:21:30;;;;;;;6.45;1.67;;;;;;;6.51;68.64;100497.53;5078785;28;20048;-85
2021/04/08 08:23:58;;;;;;;9.20;2.00;;;;;;;6.67;70.42;100497.06;5078401;28;20048;-85
2021/04/08 08:26:29;;;;;;;6.60;1.80;;;;;;;6.79;70.17;100496.72;5078183;28;20060;-86
2021/04/08 08:29:10;;;;;;;11.23;2.15;;;;;;;6.89;68.19;100498.16;5078506;28;20052;-86
2021/04/08 08:31:54;;;;;;;9.13;2.50;;;;;;;7.04;69.66;100494.22;5077911;28;20048;-86
2021/04/08 08:34:32;;;;;;;9.63;2.05;;;;;;;7.17;69.07;100499.94;5077855;28;20047;-86
2021/04/08 08:37:00;;;;;;;6.13;1.85;;;;;;;7.30;69.88;100503.03;5095773;28;20057;-86
2021/04/08 08:39:27;;;;;;;12.38;2.33;;;;;;;7.38;69.17;100494.94;5095914;28;20408;-86
2021/04/08 08:41:54;;;;;;;5.00;1.50;;;;;;;7.47;69.08;100493.78;5095541;28;20048;-86
2021/04/08 08:44:21;;;;;;;8.63;2.10;;;;;;;7.54;68.97;100499.69;5095296;28;20130;-86
2021/04/08 08:47:18;;;;;;;11.00;2.40;;;;;;;7.56;66.51;100503.13;5077537;28;20097;-87
2021/04/08 08:49:50;;;;;;;8.77;2.30;;;;;;;7.64;66.78;100506.34;5095049;28;20044;-86
2021/04/08 08:52:24;;;;;;;9.95;2.85;;;;;;;7.69;66.92;100504.44;5077467;28;20052;-86
2021/04/08 08:54:51;;;;;;;7.25;2.13;;;;;;;7.77;69.02;100498.06;5077000;28;20055;-86
2021/04/08 08:57:20;;;;;;;11.18;2.22;;;;;;;7.82;68.34;100499.63;5077359;28;20097;-87
2021/04/08 08:59:48;;;;;;;5.50;2.15;;;;;;;7.90;68.49;100499.38;5077257;28;20048;-86
2021/04/08 09:02:16;;;;;;;7.13;2.33;;;;;;;7.97;68.74;100500.03;5077598;28;20078;-86
2021/04/08 09:04:42;;;;;;;9.02;2.20;;;;;;;8.03;68.45;100493.69;5094949;28;20116;-86
2021/04/08 09:07:12;;;;;;;11.18;2.28;;;;;;;8.08;67.72;100499.66;5077345;28;20048;-86
2021/04/08 09:09:47;;;;;;;6.28;2.35;;;;;;;8.12;66.85;100501.28;5076887;28;20077;-87
2021/04/08 09:12:17;;;;;;;7.93;2.10;;;;;;;8.20;66.93;100495.75;5094782;28;20052;-86
2021/04/08 09:14:45;;;;;;;6.47;2.00;;;;;;;8.23;65.84;100490.41;5095128;28;20047;-86
2021/04/08 09:17:11;;;;;;;5.97;1.90;;;;;;;8.27;66.46;100493.75;5077154;28;20417;-86
2021/04/08 09:19:38;;;;;;;6.60;1.90;;;;;;;8.29;65.51;100497.19;5094084;28;20067;-87
2021/04/08 09:22:07;;;;;;;8.18;2.20;;;;;;;8.30;65.16;100494.50;5076995;28;20047;-86
2021/04/08 09:24:45;;;;;;;6.07;2.35;;;;;;;8.30;62.55;100505.00;5076515;28;20044;-86
2021/04/08 09:27:12;;;;;;;16.33;2.30;;;;;;;8.36;65.08;100498.69;5076532;28;20512;-86
2021/04/08 09:29:43;;;;;;;9.52;2.38;;;;;;;8.40;65.40;100494.16;5094513;28;20058;-87
2021/04/08 09:32:29;;;;;;;10.50;1.90;;;;;;;8.36;60.01;100501.31;5076668;28;20484;-86
2021/04/08 09:35:05;;;;;;;7.60;2.40;;;;;;;8.42;62.20;100494.97;5076406;28;20056;-86
2021/04/08 09:37:46;;;;;;;8.02;1.92;;;;;;;8.45;60.18;100490.47;5077097;28;20052;-86
2021/04/08 09:40:27;;;;;;;7.82;2.00;;;;;;;8.52;61.33;100492.88;5076777;28;20040;-86
2021/04/08 09:43:05;;;;;;;3.80;1.67;;;;;;;8.56;62.10;100497.16;5076889;28;20113;-86
2021/04/08 09:45:33;;;;;;;3.47;1.73;;;;;;;8.63;64.17;100493.38;5094524;28;20496;-85
2021/04/08 09:48:10;;;;;;;5.63;1.35;;;;;;;8.64;60.88;100489.84;5076893;28;20127;-86
2021/04/08 09:50:47;;;;;;;6.03;1.90;;;;;;;8.70;61.82;100486.13;5094472;28;20048;-86
2021/04/08 09:53:14;;;;;;;6.60;2.00;;;;;;;8.77;64.70;100487.59;5094824;28;20501;-85
2021/04/08 09:55:41;;;;;;;6.43;1.52;;;;;;;8.84;64.73;100488.22;5076150;28;20059;-86
2021/04/08 09:58:08;;;;;;;5.53;1.58;;;;;;;8.87;63.83;100496.00;5094398;28;20105;-86
2021/04/08 10:00:34;;;;;;;4.55;1.90;;;;;;;8.89;63.71;100494.16;5127709;22;20041;-84
2021/04/08 10:03:06;;;;;;;7.18;1.92;;;;;;;8.89;61.97;100491.53;5056118;28;20492;-84
2021/04/08 10:05:38;;;;;;;9.48;2.10;;;;;;;8.91;60.76;100487.09;5073785;28;20098;-84
2021/04/08 10:08:06;;;;;;;5.70;2.13;;;;;;;8.95;62.20;100490.44;5055982;28;20056;-85
2021/04/08 10:10:34;;;;;;;6.55;1.88;;;;;;;8.96;61.15;100490.41;5055856;28;20053;-85
2021/04/08 10:13:01;;;;;;;6.60;1.80;;;;;;;9.01;63.58;100484.09;5056062;28;20049;-84
2021/04/08 10:15:35;;;;;;;5.25;1.80;;;;;;;9.03;61.26;100477.00;5073437;28;20063;-84
2021/04/08 10:18:08;;;;;;;7.70;1.92;;;;;;;9.11;64.19;100477.56;5055935;28;20055;-84
2021/04/08 10:20:37;;;;;;;13.73;1.85;;;;;;;9.17;63.24;100479.09;5073553;28;20508;-84
2021/04/08 10:23:04;;;;;;;9.77;1.80;;;;;;;9.22;62.93;100485.91;5055782;28;20052;-85
2021/04/08 10:25:32;;;;;;;6.80;1.60;;;;;;;9.22;62.25;100482.41;5073217;28;20097;-84
2021/04/08 10:27:58;;;;;;;6.13;1.70;;;;;;;9.18;62.09;100486.94;5073727;28;20118;-85
2021/04/08 10:30:25;;;;;;;6.88;2.00;;;;;;;9.09;60.46;100489.91;5055782;28;20044;-85
2021/04/08 10:32:53;;;;;;;5.25;1.77;;;;;;;9.02;60.58;100485.81;5055327;28;20052;-85
2021/04/08 10:35:29;;;;;;;5.00;1.88;;;;;;;8.89;58.75;100486.28;5055135;28;20090;-85
2021/04/08 10:38:08;;;;;;;4.13;1.27;;;;;;;8.78;57.54;100488.47;5073368;28;20052;-85
2021/04/08 10:40:35;;;;;;;7.18;1.90;;;;;;;8.70;60.95;100494.00;5055617;28;20049;-84
2021/04/08 10:43:13;;;;;;;4.90;1.75;;;;;;;8.58;58.26;100492.69;5056019;28;20052;-84
2021/04/08 10:45:59;;;;;;;5.40;1.73;;;;;;;8.48;57.65;100493.00;5072977;28;20045;-84
2021/04/08 10:48:27;;;;;;;6.18;1.90;;;;;;;8.43;59.50;100489.69;5073381;28;20048;-85
2021/04/08 10:50:54;;;;;;;6.60;1.58;;;;;;;8.37;60.82;100486.44;5073251;28;20512;-84
2021/04/08 10:53:26;;;;;;;5.20;1.70;;;;;;;8.29;60.88;100482.31;5055473;28;20049;-84
2021/04/08 10:55:53;;;;;;;4.93;1.40;;;;;;;8.25;61.21;100477.22;5072864;28;20424;-84
2021/04/08 10:58:24;;;;;;;8.70;1.70;;;;;;;8.20;60.97;100480.88;5073095;28;20044;-85
2021/04/08 11:00:57;;;;;;;8.98;2.00;;;;;;;8.11;58.02;100478.56;5073096;28;20049;-84
2021/04/08 11:03:24;;;;;;;4.32;1.58;;;;;;;8.10;61.00;100481.25;5055425;28;20091;-84
2021/04/08 11:05:51;;;;;;;6.80;1.80;;;;;;;8.05;61.17;100491.91;5073241;28;20055;-85
2021/04/08 11:08:18;;;;;;;7.63;2.10;;;;;;;7.99;58.88;100492.13;5072964;28;20048;-84
2021/04/08 11:10:44;;;;;;;8.73;2.33;;;;;;;7.94;60.01;100487.03;5054913;28;20055;-84
2021/04/08 11:13:11;;;;;;;10.95;2.10;;;;;;;7.91;59.13;100481.88;5073177;28;20447;-84
2021/04/08 11:15:39;;;;;;;4.60;2.15;;;;;;;7.89;60.20;100481.91;5072854;28;20092;-84
2021/04/08 11:18:16;;;;;;;6.45;2.25;;;;;;;7.90;60.48;100473.19;5072834;28;20048;-84
2021/04/08 11:20:46;;;;;;;13.20;2.72;;;;;;;7.97;60.69;100480.81;5055212;28;20508;-85
2021/04/08 11:23:17;;;;;;;5.68;2.10;;;;;;;8.05;60.09;100473.53;5072927;28;20055;-85
2021/04/08 11:25:43;;;;;;;10.75;2.50;;;;;;;8.25;63.59;100469.34;5072627;28;20440;-84
2021/04/08 11:28:10;;;;;;;8.13;2.17;;;;;;;8.50;63.11;100471.09;5055340;28;20075;-84
2021/04/08 11:30:38;;;;;;;5.05;2.20;;;;;;;8.72;59.98;100481.69;5055025;28;20045;-85
2021/04/08 11:33:13;;;;;;;5.57;2.47;;;;;;;8.88;55.75;100476.69;5055117;28;20099;-85
2021/04/08 11:35:45;;;;;;;7.05;2.47;;;;;;;8.99;57.26;100479.78;5054585;28;20082;-84
2021/04/08 11:38:16;;;;;;;7.55;2.60;;;;;;;9.04;56.21;100476.97;5073231;28;20045;-85
2021/04/08 11:40:49;;;;;;;6.47;2.30;;;;;;;9.05;55.85;100470.78;5054912;28;20485;-85
2021/04/08 11:43:25;;;;;;;6.73;2.53;;;;;;;9.04;55.34;100466.44;5073675;28;20056;-84